sensor_id;sensor_type;location;lat;lon;timestamp;P1;durP1;ratioP1;P2;durP2;ratioP2
7330;SDS011;3706;49.198;7.064;2022-10-31T00:00:14;6.93;;;4.40;;
7330;SDS011;3706;49.198;7.064;2022-10-31T00:02:41;7.40;;;4.60;;
7330;SDS011;3706;49.198;7.064;2022-10-31T00:05:09;8.47;;;4.53;;
7330;SDS011;3706;49.198;7.064;2022-10-31T00:07:36;7.63;;;5.10;;
7330;SDS011;3706;49.198;7.064;2022-10-31T00:10:03;8.27;;;4.70;;
7330;SDS011;3706;49.198;7.064;2022-10-31T00:12:32;8.67;;;4.90;;
7330;SDS011;3706;49.198;7.064;2022-10-31T00:14:59;7.20;;;5.00;;
7330;SDS011;3706;49.198;7.064;2022-10-31T00:17:26;10.67;;;5.30;;
7330;SDS011;3706;49.198;7.064;2022-10-31T00:19:53;9.70;;;4.90;;
7330;SDS011;3706;49.198;7.064;2022-10-31T00:22:20;8.67;;;4.43;;
7330;SDS011;3706;49.198;7.064;2022-10-31T00:24:47;9.03;;;4.60;;
7330;SDS011;3706;49.198;7.064;2022-10-31T00:27:14;6.70;;;4.23;;
7330;SDS011;3706;49.198;7.064;2022-10-31T00:29:42;9.80;;;4.40;;
7330;SDS011;3706;49.198;7.064;2022-10-31T00:32:09;8.83;;;4.43;;
7330;SDS011;3706;49.198;7.064;2022-10-31T00:34:36;6.50;;;4.40;;
7330;SDS011;3706;49.198;7.064;2022-10-31T00:37:03;7.60;;;4.20;;
7330;SDS011;3706;49.198;7.064;2022-10-31T00:39:30;8.10;;;4.93;;
7330;SDS011;3706;49.198;7.064;2022-10-31T00:41:57;10.03;;;4.60;;
7330;SDS011;3706;49.198;7.064;2022-10-31T00:44:24;5.50;;;4.60;;
7330;SDS011;3706;49.198;7.064;2022-10-31T00:46:52;7.63;;;5.00;;
7330;SDS011;3706;49.198;7.064;2022-10-31T00:49:19;9.57;;;4.90;;
7330;SDS011;3706;49.198;7.064;2022-10-31T00:51:46;8.13;;;4.63;;
7330;SDS011;3706;49.198;7.064;2022-10-31T00:54:12;6.40;;;4.30;;
7330;SDS011;3706;49.198;7.064;2022-10-31T00:56:39;9.07;;;5.30;;
7330;SDS011;3706;49.198;7.064;2022-10-31T00:59:06;5.13;;;4.50;;
7330;SDS011;3706;49.198;7.064;2022-10-31T01:01:33;10.97;;;5.30;;
7330;SDS011;3706;49.198;7.064;2022-10-31T01:04:01;9.13;;;4.70;;
7330;SDS011;3706;49.198;7.064;2022-10-31T01:06:28;6.27;;;4.67;;
7330;SDS011;3706;49.198;7.064;2022-10-31T01:08:55;7.97;;;4.50;;
7330;SDS011;3706;49.198;7.064;2022-10-31T01:11:22;9.50;;;4.60;;
7330;SDS011;3706;49.198;7.064;2022-10-31T01:13:50;6.37;;;4.23;;
7330;SDS011;3706;49.198;7.064;2022-10-31T01:16:20;10.27;;;4.87;;
7330;SDS011;3706;49.198;7.064;2022-10-31T01:18:49;9.27;;;4.67;;
7330;SDS011;3706;49.198;7.064;2022-10-31T01:21:18;7.67;;;4.53;;
7330;SDS011;3706;49.198;7.064;2022-10-31T01:23:46;11.50;;;4.67;;
7330;SDS011;3706;49.198;7.064;2022-10-31T01:26:14;7.43;;;5.47;;
7330;SDS011;3706;49.198;7.064;2022-10-31T01:28:44;13.00;;;5.50;;
7330;SDS011;3706;49.198;7.064;2022-10-31T01:31:13;8.90;;;4.83;;
7330;SDS011;3706;49.198;7.064;2022-10-31T01:33:41;7.40;;;4.67;;
7330;SDS011;3706;49.198;7.064;2022-10-31T01:36:12;9.63;;;4.50;;
7330;SDS011;3706;49.198;7.064;2022-10-31T01:38:45;7.13;;;4.40;;
7330;SDS011;3706;49.198;7.064;2022-10-31T01:41:13;11.90;;;4.70;;
7330;SDS011;3706;49.198;7.064;2022-10-31T01:43:46;6.77;;;4.47;;
7330;SDS011;3706;49.198;7.064;2022-10-31T01:46:15;7.13;;;4.70;;
7330;SDS011;3706;49.198;7.064;2022-10-31T01:48:45;12.57;;;5.60;;
7330;SDS011;3706;49.198;7.064;2022-10-31T01:51:13;8.63;;;5.00;;
7330;SDS011;3706;49.198;7.064;2022-10-31T01:53:43;10.43;;;4.97;;
7330;SDS011;3706;49.198;7.064;2022-10-31T01:56:13;6.43;;;4.90;;
7330;SDS011;3706;49.198;7.064;2022-10-31T01:58:42;5.60;;;4.00;;
7330;SDS011;3706;49.198;7.064;2022-10-31T02:01:11;10.23;;;4.80;;
7330;SDS011;3706;49.198;7.064;2022-10-31T02:03:40;6.00;;;4.73;;
7330;SDS011;3706;49.198;7.064;2022-10-31T02:06:13;6.90;;;4.70;;
7330;SDS011;3706;49.198;7.064;2022-10-31T02:08:49;7.20;;;4.80;;
7330;SDS011;3706;49.198;7.064;2022-10-31T02:11:17;10.27;;;5.63;;
7330;SDS011;3706;49.198;7.064;2022-10-31T02:13:44;7.13;;;4.40;;
7330;SDS011;3706;49.198;7.064;2022-10-31T02:16:11;10.00;;;4.97;;
7330;SDS011;3706;49.198;7.064;2022-10-31T02:18:38;8.57;;;5.03;;
7330;SDS011;3706;49.198;7.064;2022-10-31T02:21:07;5.93;;;4.43;;
7330;SDS011;3706;49.198;7.064;2022-10-31T02:26:43;6.33;;;4.60;;
7330;SDS011;3706;49.198;7.064;2022-10-31T02:32:18;7.37;;;4.70;;
7330;SDS011;3706;49.198;7.064;2022-10-31T02:34:52;9.03;;;4.97;;
7330;SDS011;3706;49.198;7.064;2022-10-31T02:37:25;9.10;;;5.23;;
7330;SDS011;3706;49.198;7.064;2022-10-31T02:40:00;7.30;;;5.20;;
7330;SDS011;3706;49.198;7.064;2022-10-31T02:42:32;7.70;;;5.07;;
7330;SDS011;3706;49.198;7.064;2022-10-31T02:45:06;6.27;;;4.87;;
7330;SDS011;3706;49.198;7.064;2022-10-31T02:47:39;9.43;;;5.10;;
7330;SDS011;3706;49.198;7.064;2022-10-31T02:50:08;10.40;;;5.27;;
7330;SDS011;3706;49.198;7.064;2022-10-31T02:52:39;6.60;;;4.50;;
7330;SDS011;3706;49.198;7.064;2022-10-31T02:55:10;11.60;;;5.50;;
7330;SDS011;3706;49.198;7.064;2022-10-31T02:57:39;12.70;;;5.07;;
7330;SDS011;3706;49.198;7.064;2022-10-31T03:00:08;7.07;;;4.90;;
7330;SDS011;3706;49.198;7.064;2022-10-31T03:05:29;7.33;;;4.73;;
7330;SDS011;3706;49.198;7.064;2022-10-31T03:08:06;9.73;;;4.40;;
7330;SDS011;3706;49.198;7.064;2022-10-31T03:10:41;6.80;;;4.43;;
7330;SDS011;3706;49.198;7.064;2022-10-31T03:13:13;8.80;;;4.83;;
7330;SDS011;3706;49.198;7.064;2022-10-31T03:15:48;8.97;;;5.70;;
7330;SDS011;3706;49.198;7.064;2022-10-31T03:18:19;7.47;;;5.00;;
7330;SDS011;3706;49.198;7.064;2022-10-31T03:20:52;7.10;;;5.07;;
7330;SDS011;3706;49.198;7.064;2022-10-31T03:23:22;8.57;;;5.63;;
7330;SDS011;3706;49.198;7.064;2022-10-31T03:25:51;9.20;;;5.17;;
7330;SDS011;3706;49.198;7.064;2022-10-31T03:28:22;8.17;;;5.27;;
7330;SDS011;3706;49.198;7.064;2022-10-31T03:30:54;6.73;;;5.00;;
7330;SDS011;3706;49.198;7.064;2022-10-31T03:33:26;10.50;;;5.07;;
7330;SDS011;3706;49.198;7.064;2022-10-31T03:35:55;8.90;;;4.70;;
7330;SDS011;3706;49.198;7.064;2022-10-31T03:38:26;9.50;;;5.10;;
7330;SDS011;3706;49.198;7.064;2022-10-31T03:40:54;6.80;;;4.10;;
7330;SDS011;3706;49.198;7.064;2022-10-31T03:43:24;7.73;;;4.93;;
7330;SDS011;3706;49.198;7.064;2022-10-31T03:45:54;5.80;;;4.63;;
7330;SDS011;3706;49.198;7.064;2022-10-31T03:48:21;8.73;;;5.67;;
7330;SDS011;3706;49.198;7.064;2022-10-31T03:50:52;10.00;;;4.73;;
7330;SDS011;3706;49.198;7.064;2022-10-31T03:53:29;9.60;;;5.27;;
7330;SDS011;3706;49.198;7.064;2022-10-31T03:56:01;5.90;;;3.90;;
7330;SDS011;3706;49.198;7.064;2022-10-31T03:58:34;9.13;;;4.93;;
7330;SDS011;3706;49.198;7.064;2022-10-31T04:01:04;8.83;;;4.87;;
7330;SDS011;3706;49.198;7.064;2022-10-31T04:03:35;5.97;;;4.40;;
7330;SDS011;3706;49.198;7.064;2022-10-31T04:06:05;7.77;;;4.50;;
7330;SDS011;3706;49.198;7.064;2022-10-31T04:08:37;8.73;;;4.93;;
7330;SDS011;3706;49.198;7.064;2022-10-31T04:11:06;7.73;;;4.47;;
7330;SDS011;3706;49.198;7.064;2022-10-31T04:13:35;9.07;;;4.90;;
7330;SDS011;3706;49.198;7.064;2022-10-31T04:16:06;6.90;;;5.00;;
7330;SDS011;3706;49.198;7.064;2022-10-31T04:18:34;13.07;;;5.23;;
7330;SDS011;3706;49.198;7.064;2022-10-31T04:21:01;8.07;;;4.80;;
7330;SDS011;3706;49.198;7.064;2022-10-31T04:23:31;6.63;;;4.63;;
7330;SDS011;3706;49.198;7.064;2022-10-31T04:25:59;4.93;;;4.37;;
7330;SDS011;3706;49.198;7.064;2022-10-31T04:28:26;8.70;;;5.20;;
7330;SDS011;3706;49.198;7.064;2022-10-31T04:30:53;8.53;;;4.43;;
7330;SDS011;3706;49.198;7.064;2022-10-31T04:33:20;12.20;;;4.97;;
7330;SDS011;3706;49.198;7.064;2022-10-31T04:35:47;10.23;;;4.97;;
7330;SDS011;3706;49.198;7.064;2022-10-31T04:38:14;9.23;;;4.60;;
7330;SDS011;3706;49.198;7.064;2022-10-31T04:40:42;9.00;;;4.43;;
7330;SDS011;3706;49.198;7.064;2022-10-31T04:43:10;9.07;;;4.57;;
7330;SDS011;3706;49.198;7.064;2022-10-31T04:45:37;7.23;;;4.47;;
7330;SDS011;3706;49.198;7.064;2022-10-31T04:48:04;5.20;;;4.00;;
7330;SDS011;3706;49.198;7.064;2022-10-31T04:50:31;8.07;;;4.53;;
7330;SDS011;3706;49.198;7.064;2022-10-31T04:52:58;7.67;;;5.00;;
7330;SDS011;3706;49.198;7.064;2022-10-31T04:55:25;8.40;;;5.17;;
7330;SDS011;3706;49.198;7.064;2022-10-31T04:57:53;6.33;;;4.47;;
7330;SDS011;3706;49.198;7.064;2022-10-31T05:00:20;8.80;;;5.00;;
7330;SDS011;3706;49.198;7.064;2022-10-31T05:02:49;8.17;;;5.20;;
7330;SDS011;3706;49.198;7.064;2022-10-31T05:05:17;10.40;;;4.57;;
7330;SDS011;3706;49.198;7.064;2022-10-31T05:07:46;9.47;;;4.63;;
7330;SDS011;3706;49.198;7.064;2022-10-31T05:10:14;10.57;;;4.60;;
7330;SDS011;3706;49.198;7.064;2022-10-31T05:12:46;9.90;;;5.30;;
7330;SDS011;3706;49.198;7.064;2022-10-31T05:15:15;8.27;;;4.37;;
7330;SDS011;3706;49.198;7.064;2022-10-31T05:17:43;10.50;;;4.50;;
7330;SDS011;3706;49.198;7.064;2022-10-31T05:20:10;7.30;;;4.63;;
7330;SDS011;3706;49.198;7.064;2022-10-31T05:22:41;7.20;;;4.83;;
7330;SDS011;3706;49.198;7.064;2022-10-31T05:25:09;9.40;;;4.80;;
7330;SDS011;3706;49.198;7.064;2022-10-31T05:27:38;7.80;;;4.87;;
7330;SDS011;3706;49.198;7.064;2022-10-31T05:30:06;9.93;;;4.50;;
7330;SDS011;3706;49.198;7.064;2022-10-31T05:32:37;7.57;;;4.73;;
7330;SDS011;3706;49.198;7.064;2022-10-31T05:35:05;6.73;;;4.27;;
7330;SDS011;3706;49.198;7.064;2022-10-31T05:37:34;7.40;;;4.57;;
7330;SDS011;3706;49.198;7.064;2022-10-31T05:40:01;7.50;;;4.37;;
7330;SDS011;3706;49.198;7.064;2022-10-31T05:42:28;9.60;;;4.70;;
7330;SDS011;3706;49.198;7.064;2022-10-31T05:44:55;5.17;;;4.37;;
7330;SDS011;3706;49.198;7.064;2022-10-31T05:47:22;8.57;;;4.67;;
7330;SDS011;3706;49.198;7.064;2022-10-31T05:49:51;8.70;;;4.93;;
7330;SDS011;3706;49.198;7.064;2022-10-31T05:52:18;11.73;;;5.27;;
7330;SDS011;3706;49.198;7.064;2022-10-31T05:54:45;8.47;;;5.23;;
7330;SDS011;3706;49.198;7.064;2022-10-31T05:57:12;6.07;;;4.50;;
7330;SDS011;3706;49.198;7.064;2022-10-31T05:59:39;6.13;;;3.97;;
7330;SDS011;3706;49.198;7.064;2022-10-31T06:02:06;6.37;;;4.57;;
7330;SDS011;3706;49.198;7.064;2022-10-31T06:04:33;8.87;;;5.03;;
7330;SDS011;3706;49.198;7.064;2022-10-31T06:07:01;6.27;;;4.57;;
7330;SDS011;3706;49.198;7.064;2022-10-31T06:09:28;6.70;;;4.27;;
7330;SDS011;3706;49.198;7.064;2022-10-31T06:11:55;7.07;;;5.00;;
7330;SDS011;3706;49.198;7.064;2022-10-31T06:14:22;7.80;;;4.90;;
7330;SDS011;3706;49.198;7.064;2022-10-31T06:16:49;6.80;;;4.30;;
7330;SDS011;3706;49.198;7.064;2022-10-31T06:19:16;7.90;;;4.90;;
7330;SDS011;3706;49.198;7.064;2022-10-31T06:21:43;7.27;;;4.83;;
7330;SDS011;3706;49.198;7.064;2022-10-31T06:24:11;9.83;;;5.27;;
7330;SDS011;3706;49.198;7.064;2022-10-31T06:26:38;7.83;;;4.43;;
7330;SDS011;3706;49.198;7.064;2022-10-31T06:29:05;6.57;;;4.70;;
7330;SDS011;3706;49.198;7.064;2022-10-31T06:31:32;7.63;;;4.57;;
7330;SDS011;3706;49.198;7.064;2022-10-31T06:33:59;8.93;;;5.27;;
7330;SDS011;3706;49.198;7.064;2022-10-31T06:36:26;7.67;;;4.63;;
7330;SDS011;3706;49.198;7.064;2022-10-31T06:38:53;5.57;;;4.50;;
7330;SDS011;3706;49.198;7.064;2022-10-31T06:41:21;8.27;;;4.80;;
7330;SDS011;3706;49.198;7.064;2022-10-31T06:43:48;8.43;;;4.73;;
7330;SDS011;3706;49.198;7.064;2022-10-31T06:46:15;8.57;;;4.70;;
7330;SDS011;3706;49.198;7.064;2022-10-31T06:48:41;8.23;;;4.30;;
7330;SDS011;3706;49.198;7.064;2022-10-31T06:51:08;8.83;;;4.00;;
7330;SDS011;3706;49.198;7.064;2022-10-31T06:53:35;7.20;;;4.13;;
7330;SDS011;3706;49.198;7.064;2022-10-31T06:56:02;7.23;;;4.23;;
7330;SDS011;3706;49.198;7.064;2022-10-31T06:58:31;4.50;;;3.70;;
7330;SDS011;3706;49.198;7.064;2022-10-31T07:00:58;5.60;;;4.00;;
7330;SDS011;3706;49.198;7.064;2022-10-31T07:03:26;8.33;;;4.70;;
7330;SDS011;3706;49.198;7.064;2022-10-31T07:05:54;13.83;;;3.87;;
7330;SDS011;3706;49.198;7.064;2022-10-31T07:08:21;7.57;;;4.50;;
7330;SDS011;3706;49.198;7.064;2022-10-31T07:10:50;7.67;;;5.33;;
7330;SDS011;3706;49.198;7.064;2022-10-31T07:13:18;10.07;;;4.80;;
7330;SDS011;3706;49.198;7.064;2022-10-31T07:15:51;7.07;;;4.93;;
7330;SDS011;3706;49.198;7.064;2022-10-31T07:18:19;8.97;;;4.80;;
7330;SDS011;3706;49.198;7.064;2022-10-31T07:20:46;7.43;;;4.83;;
7330;SDS011;3706;49.198;7.064;2022-10-31T07:23:13;6.50;;;4.60;;
7330;SDS011;3706;49.198;7.064;2022-10-31T07:25:40;7.97;;;4.57;;
7330;SDS011;3706;49.198;7.064;2022-10-31T07:28:07;8.87;;;4.50;;
7330;SDS011;3706;49.198;7.064;2022-10-31T07:30:35;8.77;;;4.53;;
7330;SDS011;3706;49.198;7.064;2022-10-31T07:33:03;10.30;;;4.80;;
7330;SDS011;3706;49.198;7.064;2022-10-31T07:35:31;11.33;;;4.70;;
7330;SDS011;3706;49.198;7.064;2022-10-31T07:38:06;7.10;;;4.50;;
7330;SDS011;3706;49.198;7.064;2022-10-31T07:40:34;6.77;;;4.37;;
7330;SDS011;3706;49.198;7.064;2022-10-31T07:43:01;7.10;;;4.13;;
7330;SDS011;3706;49.198;7.064;2022-10-31T07:45:28;10.03;;;4.50;;
7330;SDS011;3706;49.198;7.064;2022-10-31T07:47:55;6.17;;;4.50;;
7330;SDS011;3706;49.198;7.064;2022-10-31T07:50:24;5.77;;;4.33;;
7330;SDS011;3706;49.198;7.064;2022-10-31T07:52:59;7.70;;;4.37;;
7330;SDS011;3706;49.198;7.064;2022-10-31T07:55:26;6.30;;;3.87;;
7330;SDS011;3706;49.198;7.064;2022-10-31T07:57:55;7.07;;;5.23;;
7330;SDS011;3706;49.198;7.064;2022-10-31T08:00:23;8.13;;;6.70;;
7330;SDS011;3706;49.198;7.064;2022-10-31T08:02:55;11.27;;;7.17;;
7330;SDS011;3706;49.198;7.064;2022-10-31T08:05:24;12.47;;;6.53;;
7330;SDS011;3706;49.198;7.064;2022-10-31T08:07:51;9.87;;;5.70;;
7330;SDS011;3706;49.198;7.064;2022-10-31T08:10:18;9.23;;;6.67;;
7330;SDS011;3706;49.198;7.064;2022-10-31T08:12:45;8.57;;;5.97;;
7330;SDS011;3706;49.198;7.064;2022-10-31T08:15:12;10.03;;;5.80;;
7330;SDS011;3706;49.198;7.064;2022-10-31T08:17:39;8.17;;;4.97;;
7330;SDS011;3706;49.198;7.064;2022-10-31T08:20:06;8.57;;;5.77;;
7330;SDS011;3706;49.198;7.064;2022-10-31T08:22:35;7.00;;;5.13;;
7330;SDS011;3706;49.198;7.064;2022-10-31T08:25:02;8.27;;;5.60;;
7330;SDS011;3706;49.198;7.064;2022-10-31T08:27:29;9.70;;;6.23;;
7330;SDS011;3706;49.198;7.064;2022-10-31T08:29:56;8.40;;;5.33;;
7330;SDS011;3706;49.198;7.064;2022-10-31T08:32:23;10.23;;;5.57;;
7330;SDS011;3706;49.198;7.064;2022-10-31T08:34:50;8.93;;;6.03;;
7330;SDS011;3706;49.198;7.064;2022-10-31T08:37:17;9.60;;;5.40;;
7330;SDS011;3706;49.198;7.064;2022-10-31T08:39:46;10.90;;;5.13;;
7330;SDS011;3706;49.198;7.064;2022-10-31T08:42:13;13.90;;;4.80;;
7330;SDS011;3706;49.198;7.064;2022-10-31T08:44:40;7.73;;;4.90;;
7330;SDS011;3706;49.198;7.064;2022-10-31T08:47:07;6.53;;;4.60;;
7330;SDS011;3706;49.198;7.064;2022-10-31T08:49:34;9.50;;;4.80;;
7330;SDS011;3706;49.198;7.064;2022-10-31T08:52:01;8.20;;;4.83;;
7330;SDS011;3706;49.198;7.064;2022-10-31T08:54:28;4.90;;;3.80;;
7330;SDS011;3706;49.198;7.064;2022-10-31T08:56:56;5.97;;;4.47;;
7330;SDS011;3706;49.198;7.064;2022-10-31T08:59:23;5.30;;;3.50;;
7330;SDS011;3706;49.198;7.064;2022-10-31T09:01:50;6.83;;;4.47;;
7330;SDS011;3706;49.198;7.064;2022-10-31T09:04:16;6.33;;;3.97;;
7330;SDS011;3706;49.198;7.064;2022-10-31T09:06:43;7.60;;;4.03;;
7330;SDS011;3706;49.198;7.064;2022-10-31T09:09:10;7.00;;;4.03;;
7330;SDS011;3706;49.198;7.064;2022-10-31T09:11:37;7.63;;;3.23;;
7330;SDS011;3706;49.198;7.064;2022-10-31T09:14:05;6.97;;;3.67;;
7330;SDS011;3706;49.198;7.064;2022-10-31T09:16:32;6.17;;;4.03;;
7330;SDS011;3706;49.198;7.064;2022-10-31T09:18:59;5.63;;;4.07;;
7330;SDS011;3706;49.198;7.064;2022-10-31T09:21:26;7.93;;;3.77;;
7330;SDS011;3706;49.198;7.064;2022-10-31T09:23:53;6.40;;;4.00;;
7330;SDS011;3706;49.198;7.064;2022-10-31T09:26:20;7.00;;;4.53;;
7330;SDS011;3706;49.198;7.064;2022-10-31T09:28:47;8.00;;;5.33;;
7330;SDS011;3706;49.198;7.064;2022-10-31T09:31:15;8.70;;;5.57;;
7330;SDS011;3706;49.198;7.064;2022-10-31T09:33:42;9.07;;;5.80;;
7330;SDS011;3706;49.198;7.064;2022-10-31T09:36:09;10.53;;;4.70;;
7330;SDS011;3706;49.198;7.064;2022-10-31T09:38:35;9.53;;;5.23;;
7330;SDS011;3706;49.198;7.064;2022-10-31T09:41:05;7.20;;;4.87;;
7330;SDS011;3706;49.198;7.064;2022-10-31T09:43:43;9.83;;;6.00;;
7330;SDS011;3706;49.198;7.064;2022-10-31T09:46:18;8.00;;;5.20;;
7330;SDS011;3706;49.198;7.064;2022-10-31T09:48:55;7.10;;;5.10;;
7330;SDS011;3706;49.198;7.064;2022-10-31T09:51:33;8.33;;;5.20;;
7330;SDS011;3706;49.198;7.064;2022-10-31T09:54:04;8.67;;;5.30;;
7330;SDS011;3706;49.198;7.064;2022-10-31T09:56:36;8.30;;;4.67;;
7330;SDS011;3706;49.198;7.064;2022-10-31T09:59:04;13.77;;;4.50;;
7330;SDS011;3706;49.198;7.064;2022-10-31T10:01:39;9.73;;;4.40;;
7330;SDS011;3706;49.198;7.064;2022-10-31T10:04:21;7.23;;;4.57;;
7330;SDS011;3706;49.198;7.064;2022-10-31T10:06:58;7.83;;;3.90;;
7330;SDS011;3706;49.198;7.064;2022-10-31T10:09:34;11.90;;;5.13;;
7330;SDS011;3706;49.198;7.064;2022-10-31T10:12:06;6.67;;;4.40;;
7330;SDS011;3706;49.198;7.064;2022-10-31T10:17:35;7.00;;;4.20;;
7330;SDS011;3706;49.198;7.064;2022-10-31T10:20:12;8.43;;;4.03;;
7330;SDS011;3706;49.198;7.064;2022-10-31T10:22:47;6.50;;;4.53;;
7330;SDS011;3706;49.198;7.064;2022-10-31T10:25:20;8.43;;;4.60;;
7330;SDS011;3706;49.198;7.064;2022-10-31T10:27:50;5.30;;;4.13;;
7330;SDS011;3706;49.198;7.064;2022-10-31T10:30:26;7.10;;;4.37;;
7330;SDS011;3706;49.198;7.064;2022-10-31T10:33:02;10.43;;;4.30;;
7330;SDS011;3706;49.198;7.064;2022-10-31T10:35:35;12.37;;;5.03;;
7330;SDS011;3706;49.198;7.064;2022-10-31T10:38:10;9.83;;;4.83;;
7330;SDS011;3706;49.198;7.064;2022-10-31T10:40:41;11.67;;;5.30;;
7330;SDS011;3706;49.198;7.064;2022-10-31T10:43:15;6.13;;;4.23;;
7330;SDS011;3706;49.198;7.064;2022-10-31T10:45:50;7.53;;;4.70;;
7330;SDS011;3706;49.198;7.064;2022-10-31T10:48:46;12.17;;;4.97;;
7330;SDS011;3706;49.198;7.064;2022-10-31T10:51:21;9.77;;;4.80;;
7330;SDS011;3706;49.198;7.064;2022-10-31T10:53:58;9.03;;;4.60;;
7330;SDS011;3706;49.198;7.064;2022-10-31T10:56:33;8.50;;;4.50;;
7330;SDS011;3706;49.198;7.064;2022-10-31T10:59:07;8.83;;;4.43;;
7330;SDS011;3706;49.198;7.064;2022-10-31T11:01:38;7.40;;;4.57;;
7330;SDS011;3706;49.198;7.064;2022-10-31T11:04:13;10.27;;;4.20;;
7330;SDS011;3706;49.198;7.064;2022-10-31T11:07:01;6.13;;;4.23;;
7330;SDS011;3706;49.198;7.064;2022-10-31T11:09:29;8.07;;;4.20;;
7330;SDS011;3706;49.198;7.064;2022-10-31T11:11:58;9.80;;;4.63;;
7330;SDS011;3706;49.198;7.064;2022-10-31T11:14:31;9.47;;;4.67;;
7330;SDS011;3706;49.198;7.064;2022-10-31T11:17:07;9.33;;;4.50;;
7330;SDS011;3706;49.198;7.064;2022-10-31T11:19:37;7.83;;;4.40;;
7330;SDS011;3706;49.198;7.064;2022-10-31T11:22:05;6.53;;;4.40;;
7330;SDS011;3706;49.198;7.064;2022-10-31T11:24:36;7.93;;;4.30;;
7330;SDS011;3706;49.198;7.064;2022-10-31T11:27:15;10.63;;;5.07;;
7330;SDS011;3706;49.198;7.064;2022-10-31T11:29:46;7.57;;;4.30;;
7330;SDS011;3706;49.198;7.064;2022-10-31T11:32:16;7.10;;;4.43;;
7330;SDS011;3706;49.198;7.064;2022-10-31T11:34:48;6.03;;;4.57;;
7330;SDS011;3706;49.198;7.064;2022-10-31T11:37:18;7.10;;;4.50;;
7330;SDS011;3706;49.198;7.064;2022-10-31T11:39:49;10.37;;;4.87;;
7330;SDS011;3706;49.198;7.064;2022-10-31T11:42:19;9.03;;;4.30;;
7330;SDS011;3706;49.198;7.064;2022-10-31T11:44:48;11.40;;;4.27;;
7330;SDS011;3706;49.198;7.064;2022-10-31T11:47:17;10.10;;;4.30;;
7330;SDS011;3706;49.198;7.064;2022-10-31T11:49:52;8.17;;;4.70;;
7330;SDS011;3706;49.198;7.064;2022-10-31T11:52:20;8.60;;;3.90;;
7330;SDS011;3706;49.198;7.064;2022-10-31T11:54:52;12.63;;;4.90;;
7330;SDS011;3706;49.198;7.064;2022-10-31T11:57:25;10.23;;;4.50;;
7330;SDS011;3706;49.198;7.064;2022-10-31T11:59:54;9.17;;;4.93;;
7330;SDS011;3706;49.198;7.064;2022-10-31T12:02:23;8.80;;;4.60;;
7330;SDS011;3706;49.198;7.064;2022-10-31T12:04:54;9.50;;;5.20;;
7330;SDS011;3706;49.198;7.064;2022-10-31T12:07:26;9.20;;;4.43;;
7330;SDS011;3706;49.198;7.064;2022-10-31T12:09:53;10.87;;;4.87;;
7330;SDS011;3706;49.198;7.064;2022-10-31T12:15:17;10.97;;;4.63;;
7330;SDS011;3706;49.198;7.064;2022-10-31T12:17:55;12.37;;;4.37;;
7330;SDS011;3706;49.198;7.064;2022-10-31T12:20:46;6.63;;;4.27;;
7330;SDS011;3706;49.198;7.064;2022-10-31T12:23:34;5.77;;;4.13;;
7330;SDS011;3706;49.198;7.064;2022-10-31T12:26:10;11.63;;;5.60;;
7330;SDS011;3706;49.198;7.064;2022-10-31T12:28:51;8.80;;;5.07;;
7330;SDS011;3706;49.198;7.064;2022-10-31T12:31:39;7.50;;;3.93;;
7330;SDS011;3706;49.198;7.064;2022-10-31T12:34:24;8.10;;;3.57;;
7330;SDS011;3706;49.198;7.064;2022-10-31T12:37:15;16.97;;;4.10;;
7330;SDS011;3706;49.198;7.064;2022-10-31T12:39:54;8.20;;;4.07;;
7330;SDS011;3706;49.198;7.064;2022-10-31T12:42:32;5.40;;;3.80;;
7330;SDS011;3706;49.198;7.064;2022-10-31T12:45:12;6.43;;;3.83;;
7330;SDS011;3706;49.198;7.064;2022-10-31T12:47:55;8.13;;;3.33;;
7330;SDS011;3706;49.198;7.064;2022-10-31T12:50:31;6.87;;;3.53;;
7330;SDS011;3706;49.198;7.064;2022-10-31T12:53:14;9.50;;;3.63;;
7330;SDS011;3706;49.198;7.064;2022-10-31T12:55:55;7.67;;;4.03;;
7330;SDS011;3706;49.198;7.064;2022-10-31T12:58:34;6.43;;;3.40;;
7330;SDS011;3706;49.198;7.064;2022-10-31T13:01:07;6.77;;;3.67;;
7330;SDS011;3706;49.198;7.064;2022-10-31T13:03:39;8.80;;;3.80;;
7330;SDS011;3706;49.198;7.064;2022-10-31T13:06:13;9.10;;;3.90;;
7330;SDS011;3706;49.198;7.064;2022-10-31T13:08:47;10.43;;;3.87;;
7330;SDS011;3706;49.198;7.064;2022-10-31T13:11:19;7.77;;;4.00;;
7330;SDS011;3706;49.198;7.064;2022-10-31T13:13:52;5.53;;;3.60;;
7330;SDS011;3706;49.198;7.064;2022-10-31T13:16:25;10.40;;;4.23;;
7330;SDS011;3706;49.198;7.064;2022-10-31T13:18:57;8.23;;;4.37;;
7330;SDS011;3706;49.198;7.064;2022-10-31T13:21:29;8.23;;;3.70;;
7330;SDS011;3706;49.198;7.064;2022-10-31T13:24:01;13.00;;;4.10;;
7330;SDS011;3706;49.198;7.064;2022-10-31T13:26:35;7.67;;;3.83;;
7330;SDS011;3706;49.198;7.064;2022-10-31T13:29:06;8.00;;;3.97;;
7330;SDS011;3706;49.198;7.064;2022-10-31T13:31:41;7.63;;;3.57;;
7330;SDS011;3706;49.198;7.064;2022-10-31T13:34:10;7.87;;;3.93;;
7330;SDS011;3706;49.198;7.064;2022-10-31T13:36:50;9.33;;;5.07;;
7330;SDS011;3706;49.198;7.064;2022-10-31T13:39:28;7.13;;;3.90;;
7330;SDS011;3706;49.198;7.064;2022-10-31T13:42:08;7.70;;;4.23;;
7330;SDS011;3706;49.198;7.064;2022-10-31T13:44:43;8.37;;;4.07;;
7330;SDS011;3706;49.198;7.064;2022-10-31T13:47:24;8.50;;;4.10;;
7330;SDS011;3706;49.198;7.064;2022-10-31T13:50:02;7.53;;;4.70;;
7330;SDS011;3706;49.198;7.064;2022-10-31T13:52:31;7.90;;;4.13;;
7330;SDS011;3706;49.198;7.064;2022-10-31T13:54:59;7.57;;;3.63;;
7330;SDS011;3706;49.198;7.064;2022-10-31T13:57:30;6.70;;;3.60;;
7330;SDS011;3706;49.198;7.064;2022-10-31T13:59:59;9.77;;;4.07;;
7330;SDS011;3706;49.198;7.064;2022-10-31T14:02:30;7.00;;;3.77;;
7330;SDS011;3706;49.198;7.064;2022-10-31T14:04:59;11.70;;;4.70;;
7330;SDS011;3706;49.198;7.064;2022-10-31T14:07:28;9.83;;;4.33;;
7330;SDS011;3706;49.198;7.064;2022-10-31T14:09:57;8.93;;;3.30;;
7330;SDS011;3706;49.198;7.064;2022-10-31T14:12:30;6.37;;;3.83;;
7330;SDS011;3706;49.198;7.064;2022-10-31T14:15:03;6.47;;;3.70;;
7330;SDS011;3706;49.198;7.064;2022-10-31T14:17:38;9.03;;;3.53;;
7330;SDS011;3706;49.198;7.064;2022-10-31T14:20:24;9.03;;;4.00;;
7330;SDS011;3706;49.198;7.064;2022-10-31T14:23:13;8.70;;;4.07;;
7330;SDS011;3706;49.198;7.064;2022-10-31T14:29:21;10.93;;;4.00;;
7330;SDS011;3706;49.198;7.064;2022-10-31T14:31:53;6.47;;;3.20;;
7330;SDS011;3706;49.198;7.064;2022-10-31T14:34:36;7.03;;;3.70;;
7330;SDS011;3706;49.198;7.064;2022-10-31T14:37:25;7.33;;;3.27;;
7330;SDS011;3706;49.198;7.064;2022-10-31T14:40:17;7.13;;;3.60;;
7330;SDS011;3706;49.198;7.064;2022-10-31T14:46:01;7.53;;;3.97;;
7330;SDS011;3706;49.198;7.064;2022-10-31T14:48:42;7.97;;;4.00;;
7330;SDS011;3706;49.198;7.064;2022-10-31T14:51:38;7.70;;;3.70;;
7330;SDS011;3706;49.198;7.064;2022-10-31T14:54:10;7.13;;;3.50;;
7330;SDS011;3706;49.198;7.064;2022-10-31T14:56:46;9.30;;;4.03;;
7330;SDS011;3706;49.198;7.064;2022-10-31T14:59:18;7.00;;;3.53;;
7330;SDS011;3706;49.198;7.064;2022-10-31T15:01:52;5.73;;;3.70;;
7330;SDS011;3706;49.198;7.064;2022-10-31T15:04:23;8.07;;;3.83;;
7330;SDS011;3706;49.198;7.064;2022-10-31T15:06:52;6.87;;;3.83;;
7330;SDS011;3706;49.198;7.064;2022-10-31T15:09:26;12.27;;;3.87;;
7330;SDS011;3706;49.198;7.064;2022-10-31T15:11:54;8.50;;;4.40;;
7330;SDS011;3706;49.198;7.064;2022-10-31T15:14:24;9.73;;;3.83;;
7330;SDS011;3706;49.198;7.064;2022-10-31T15:16:52;5.00;;;3.50;;
7330;SDS011;3706;49.198;7.064;2022-10-31T15:19:20;13.53;;;4.67;;
7330;SDS011;3706;49.198;7.064;2022-10-31T15:21:50;8.80;;;3.40;;
7330;SDS011;3706;49.198;7.064;2022-10-31T15:24:18;11.73;;;5.70;;
7330;SDS011;3706;49.198;7.064;2022-10-31T15:26:47;9.40;;;5.63;;
7330;SDS011;3706;49.198;7.064;2022-10-31T15:29:16;15.53;;;7.37;;
7330;SDS011;3706;49.198;7.064;2022-10-31T15:31:51;11.27;;;5.70;;
7330;SDS011;3706;49.198;7.064;2022-10-31T15:34:20;9.57;;;5.53;;
7330;SDS011;3706;49.198;7.064;2022-10-31T15:36:56;22.80;;;11.40;;
7330;SDS011;3706;49.198;7.064;2022-10-31T15:39:23;15.50;;;9.17;;
7330;SDS011;3706;49.198;7.064;2022-10-31T15:41:50;20.40;;;11.97;;
7330;SDS011;3706;49.198;7.064;2022-10-31T15:44:20;7.27;;;4.30;;
7330;SDS011;3706;49.198;7.064;2022-10-31T15:46:58;7.37;;;4.70;;
7330;SDS011;3706;49.198;7.064;2022-10-31T15:49:32;9.47;;;4.43;;
7330;SDS011;3706;49.198;7.064;2022-10-31T15:52:04;11.70;;;6.30;;
7330;SDS011;3706;49.198;7.064;2022-10-31T15:54:36;14.70;;;7.53;;